Terminal Aerodrome Forecast
Issued by NWS Charleston, WV

Current Version | Previous Version | Graphics & Text | Print | Product List | Glossary On
Versions: 1 2 3 4 5 6 7 8 9 10 11 12 13 14 15 16 17 18 19 20 21 22 23 24 25 26 27 28
393
FTUS41 KRLX 060251 AAB
TAFEKN
TAF AMD
KEKN 060251Z 0603/0624 32004KT 5SM SHRA BR SCT008 OVC015
     FM060500 33004KT 5SM SHRA BR OVC007
     FM060900 34004KT 2SM SHRA BR OVC007
     FM061500 32007KT 6SM SHRA OVC013
     FM061700 33009G15KT 5SM SHRA OVC025=

USA.gov is the U.S. government's official web portal to all federal, state and local government web resources and services.